ADDS METAR Data INFO
IDs: Format: Raw Decoded Include TAF

Data at: 1132 UTC 29 May 2017

KFTW 291053Z 36009KT 10SM BKN100 20/17 A2998 RMK AO2 SLP144 T02000172
KFTW 290953Z 36011KT 10SM CLR 21/18 A2996 RMK AO2 SLP137 T02060178
KFTW 290853Z 34005KT 10SM CLR 19/18 A2998 RMK AO2 SLP145 T01940183 58016
KFTW 290753Z 35004KT 8SM CLR 20/19 A3001 RMK AO2 SLP153 T02000194
KFTW 290653Z 00000KT 10SM CLR 22/21 A3004 RMK AO2 SLP164 T02170206
KFTW 290553Z 34004KT 10SM CLR 22/20 A3003 RMK AO2 SLP160 T02170200 10261 20217 402890217 50013
KFTW 290453Z 21003KT 10SM CLR 22/20 A3004 RMK AO2 SLP164 T02220200
KFTW 290353Z 00000KT 10SM CLR 23/21 A3003 RMK AO2 SLP160 T02330206
KFTW 290253Z 00000KT 10SM CLR 24/20 A2999 RMK AO2 SLP147 T02440200 53026
KFTW 290153Z 05005KT 10SM CLR 24/20 A2993 RMK AO2 PRESRR SLP128 T02440200
KFTW 290053Z 07004KT 10SM CLR 26/20 A2992 RMK AO2 PRESRR SLP124 T02560200
KFTW 282353Z 34007KT 10SM CLR 26/20 A2991 RMK AO2 SLP120 60000 T02610200 10267 20239 56026
KFTW 282253Z 35004KT 10SM CLR 26/20 A2993 RMK AO2 SLP126 T02610200
KFTW 282153Z 34009KT 10SM BKN034 25/20 A2996 RMK AO2 WSHFT 2104 RAE2056 SLP137 P0000 T02500200
KFTW 282124Z 05009KT 10SM SCT025 26/21 A2993 RMK AO2 WSHFT 2104 RAE2056 P0000 T02560206
KFTW 282053Z 36009KT 10SM -RA OVC023 24/21 A2999 RMK AO2 RAE1956B43 SLP146 P0000 60000 T02440206 51008
KFTW 281953Z 36013KT 10SM -RA OVC017 24/21 A2997 RMK AO2 LTG DSNT E AND SE RAB45 TSE1858 SLP140 P0000 T02440211
KFTW 281904Z 03011KT 10SM OVC017 25/21 A2996 RMK AO2 LTG DSNT E AND W TSE1858 PRESFR T02500206
KFTW 281853Z 03010G17KT 10SM TS OVC017 25/21 A2999 RMK AO2 LTG DSNT W TSB41 SLP144 T02500206
KFTW 281841Z 36013KT 10SM TS OVC016 24/21 A3000 RMK AO2 TSB41 T02440206
KFTW 281753Z 02013KT 10SM OVC016 26/21 A2996 RMK AO2 SLP137 60000 T02560206 10256 20233 50005
KFTW 281653Z 05011KT 10SM OVC015 24/21 A2997 RMK AO2 SLP139 T02440206
KFTW 281553Z 02010KT 10SM OVC018 24/20 A2996 RMK AO2 RAB1455E13 SLP136 P0000 T02440200
KFTW 281453Z 02011KT 10SM OVC016 24/20 A2995 RMK AO2 RAB18E27 SLP132 P0000 60000 T02390200 51026
KFTW 281428Z 01009KT 10SM OVC014 24/20 A2995 RMK AO2 RAB18E27 P0000 T02390200
KFTW 281416Z 02009KT 10SM BKN015 OVC031 24/20 A2994 RMK AO2 T02390200
KFTW 281407Z 03009KT 10SM SCT015 OVC031 24/20 A2994 RMK AO2 T02440200
KFTW 281353Z 04008KT 10SM OVC029 24/19 A2994 RMK AO2 SLP128 T02390194
KFTW 281253Z 03011KT 10SM OVC022 23/20 A2991 RMK AO2 SLP117 T02330200
KFTW 281153Z 03007KT 10SM OVC023 24/20 A2987 RMK AO2 SLP104 60000 T02390200 10289 20239 53020
KFTW 281053Z 04011KT 10SM BKN027 OVC049 25/19 A2984 RMK AO2 SLP095 T02500189
KFTW 281045Z 05008KT 10SM BKN027 OVC046 25/19 A2984 RMK AO2 T02500189
KFTW 280953Z 08010KT 10SM FEW020 SCT050 SCT065 26/20 A2981 RMK AO2 PK WND 36026/0926 LTG DSNT NE AND E RAB28E42 SLP083 P0000 T02560200
KFTW 280949Z 07010KT 10SM FEW022 SCT028 BKN065 26/20 A2981 RMK AO2 PK WND 36026/0926 LTG DSNT NE AND E RAB28E42 P0000
KFTW 280853Z 00000KT 10SM BKN020 28/24 A2978 RMK AO2 LTG DSNT W-NE SLP074 T02780239 53016
KFTW 280844Z 02008G17KT 10SM BKN020 28/24 A2978 RMK AO2 LTG DSNT W-NE T02780239
KFTW 280753Z 19012G19KT 10SM CLR 27/23 A2971 RMK AO2 LTG DSNT N AND NW SLP047 T02720233
KFTW 280653Z 19015KT 10SM CLR 28/24 A2973 RMK AO2 SLP055 T02830239
KFTW 280553Z 19016G23KT 10SM CLR 29/24 A2974 RMK AO2 PK WND 19026/0541 SLP058 T02890239 10328 20289 403500267 50006
KFTW 280453Z 17015G23KT 10SM CLR 30/24 A2975 RMK AO2 SLP063 T03000239
KFTW 280353Z 18012KT 8SM CLR 31/24 A2972 RMK AO2 SLP052 T03060239
KFTW 280253Z 19016G25KT 7SM CLR 31/24 A2972 RMK AO2 SLP053 T03060244 58009
KFTW 280153Z 17011G21KT 6SM HZ CLR 31/24 A2974 RMK AO2 SLP059 T03110244
KFTW 280053Z AUTO 17014G20KT 5SM HZ FEW033 FEW041 32/24 A2974 RMK AO2 SLP060 T03170244
KFTW 272353Z 17014KT 5SM HZ SCT032 33/24 A2975 RMK AO2 PK WND 17026/2316 SLP063 T03280244 10350 20328 58008


Page loaded:  11:32 UTC  |   04:32 AM Pacific  |   05:32 AM Mountain  |   06:32 AM Central  |   07:32 AM Eastern

 

ADVISORIES

FORECASTS

FORECASTS

OBSERVATIONS

USER TOOLS

ABOUT US